Home   Weather   Russia   Elista   Past weeks
Flag for Russia

Past Weather in Elista, Russia — Yesterday and Last 2 Weeks

Currently: 82 °F. Sunny. (Weather station: Elista Airport, Russia). See more current weather

Past Weather in Elista — Graph

°F

Elista Temperature Yesterday

Maximum temperature yesterday: 81 °F (at 3:00 pm)
Minimum temperature yesterday: 64 °F (at 1:30 am)
Average temperature yesterday: 72 °F

High & Low Weather Summary for the Past Weeks

 TemperatureHumidityPressure
High86 °F (Jun 1, 3:30 pm)100% (Jun 15, 2:30 am)30.04 "Hg (Jun 15, 2:30 am)
Low55 °F (Jun 4, 4:00 am)25% (Jun 1, 3:30 pm)29.68 "Hg (Jun 1, 7:30 pm)
Average69 °F63%29.89 "Hg
* Reported May 31 7:00 pm — Jun 15 7:00 pm, Elista. Weather by CustomWeather, © 2021

Note: Actual official high and low records may vary slightly from our data, if they occured in-between our weather recording intervals... More about our weather records

Elista Weather History for the Previous 24 Hours

Scroll right to see more
 ConditionsComfort  
Time TempWeatherWind HumidityBarometerVisibility
7:00 pm
Tue, Jun 15
82 °FSunny.1 mph37%29.80 "Hg10 mi
6:30 pm82 °FSunny.3 mph37%29.80 "Hg10 mi
6:00 pm82 °FSunny.3 mph37%29.80 "Hg10 mi
5:30 pm84 °FPassing clouds.3 mph33%29.77 "HgN/A
5:00 pm84 °FPassing clouds.6 mph35%29.80 "HgN/A
4:30 pm84 °FScattered clouds.8 mph33%29.80 "HgN/A
4:00 pm84 °FScattered clouds.3 mph35%29.80 "HgN/A
3:30 pm82 °FScattered clouds.3 mph37%29.80 "HgN/A
3:00 pm82 °FSunny.1 mph37%29.80 "Hg10 mi
2:30 pm82 °FPassing clouds.1 mph40%29.80 "HgN/A
2:00 pm81 °FPassing clouds.3 mph48%29.80 "HgN/A
1:30 pm81 °FPassing clouds.3 mph45%29.80 "HgN/A
1:00 pm79 °FPassing clouds.3 mph48%29.80 "HgN/A
12:30 pm79 °FPassing clouds.1 mph48%29.80 "HgN/A
12:00 pm79 °FPassing clouds.1 mph48%29.80 "HgN/A
11:30 am79 °FPassing clouds.6 mph51%29.80 "HgN/A
11:00 am77 °FPassing clouds.3 mph54%29.83 "HgN/A
10:30 am77 °FScattered clouds.3 mph57%29.83 "HgN/A
10:00 am75 °FScattered clouds.3 mph61%29.83 "HgN/A
9:30 am73 °FScattered clouds.1 mph65%29.83 "HgN/A
9:00 am72 °FScattered clouds.3 mph73%29.86 "HgN/A
8:30 am72 °FScattered clouds.3 mph73%29.86 "HgN/A
8:00 am72 °FSunny.6 mph73%29.83 "HgN/A
7:30 am70 °FSunny.6 mph83%29.83 "HgN/A
7:00 am68 °FMild.6 mph83%29.83 "HgN/A
6:30 am66 °FMild.3 mph88%29.83 "Hg5 mi
6:00 am64 °FMild.8 mph94%29.80 "Hg4 mi
5:30 am64 °FSunny.3 mph94%29.80 "Hg4 mi
5:00 am63 °FSunny.3 mph94%29.80 "Hg5 mi
4:30 am63 °FSunny.3 mph94%29.83 "Hg6 mi
4:00 am63 °FClear.3 mph94%29.83 "HgN/A
3:30 am63 °FClear.6 mph94%29.83 "HgN/A
2:30 am63 °FClear.3 mph100%29.83 "HgN/A
2:00 am64 °FClear.3 mph94%29.83 "Hg5 mi
1:30 am64 °FClear.6 mph94%29.83 "Hg3 mi
1:00 am64 °FClear.3 mph94%29.83 "Hg2 mi
12:30 am64 °FClear.3 mph94%29.83 "Hg3 mi
12:00 am66 °FClear.6 mph94%29.86 "Hg5 mi
11:30 pm
Mon, Jun 14
66 °FClear.6 mph94%29.86 "HgN/A
11:00 pm66 °FClear.6 mph94%29.86 "HgN/A
10:30 pm66 °FClear.6 mph88%29.86 "HgN/A
10:00 pm70 °FClear.3 mph73%29.86 "HgN/A
9:30 pm70 °FClear.6 mph73%29.86 "HgN/A
9:00 pm70 °FClear.6 mph73%29.86 "HgN/A
8:30 pm70 °FClear.8 mph73%29.86 "Hg10 mi
8:00 pm72 °FClear.10 mph69%29.86 "Hg10 mi
Weather by CustomWeather, © 2021

See weather overview